Airport METAR Information

LTBA 291620Z 25007KT 210V270 9999 FEW035 BKN100 18/12 Q1015 NOSIG

VATSIM Livefeed

Card image cap

ATC Bookings

No position booked

Card image cap

Active ATC

No controllers online

Blog

Read our latest news and get to know us better.